createdAt,value
2018-06-03T00:01:31.050Z,101332.13
2018-06-03T00:03:59.056Z,101338.34
2018-06-03T00:06:27.065Z,101334.83
2018-06-03T00:08:55.072Z,101334.22
2018-06-03T00:11:23.058Z,101332.51
2018-06-03T00:13:51.055Z,101322.48
2018-06-03T00:16:19.046Z,101328.87
2018-06-03T00:18:47.049Z,101326.16
2018-06-03T00:21:35.630Z,101321.56
2018-06-03T00:24:03.636Z,101322.05
2018-06-03T00:26:31.897Z,101317.72
2018-06-03T00:29:00.186Z,101322.84
2018-06-03T00:31:28.451Z,101320.92
2018-06-03T00:33:56.742Z,101324.22
2018-06-03T00:36:36.830Z,101317.88
2018-06-03T00:39:07.816Z,101320.81
2018-06-03T00:41:36.090Z,101317.02
2018-06-03T00:44:04.362Z,101315.66
2018-06-03T00:46:32.641Z,101309.36
2018-06-03T00:49:00.930Z,101308.50
2018-06-03T00:51:29.205Z,101312.14
2018-06-03T00:53:57.510Z,101309.43
2018-06-03T00:56:37.707Z,101315.34
2018-06-03T00:59:05.984Z,101311.85
2018-06-03T01:01:34.247Z,101310.64
2018-06-03T01:04:02.530Z,101305.84
2018-06-03T01:06:30.811Z,101309.66
2018-06-03T01:08:59.086Z,101314.75
2018-06-03T01:11:27.365Z,101310.16
2018-06-03T01:13:55.638Z,101303.73
2018-06-03T01:16:23.925Z,101305.14
2018-06-03T01:18:52.193Z,101300.08
2018-06-03T01:21:20.471Z,101303.30
2018-06-03T01:23:48.741Z,101296.88
2018-06-03T01:26:17.018Z,101295.47
2018-06-03T01:28:45.287Z,101295.20
2018-06-03T01:31:13.573Z,101291.12
2018-06-03T01:33:41.840Z,101296.09
2018-06-03T01:36:10.116Z,101293.93
2018-06-03T01:38:38.390Z,101281.53
2018-06-03T01:41:06.657Z,101287.69
2018-06-03T01:43:34.934Z,101288.80
2018-06-03T01:46:03.205Z,101282.30
2018-06-03T01:48:31.494Z,101282.98
2018-06-03T01:50:59.777Z,101283.94
2018-06-03T01:53:28.050Z,101282.22
2018-06-03T01:55:56.321Z,101277.45
2018-06-03T01:58:24.599Z,101276.86
2018-06-03T02:00:52.875Z,101274.41
2018-06-03T02:03:21.153Z,101274.21
2018-06-03T02:05:49.418Z,101275.89
2018-06-03T02:08:17.694Z,101278.61
2018-06-03T02:10:45.982Z,101274.42
2018-06-03T02:13:14.268Z,101268.52
2018-06-03T02:15:42.538Z,101269.66
2018-06-03T02:18:10.810Z,101262.62
2018-06-03T02:20:39.085Z,101263.80
2018-06-03T02:23:07.379Z,101266.84
2018-06-03T02:25:35.662Z,101269.66
2018-06-03T02:28:03.940Z,101264.70
2018-06-03T02:30:32.221Z,101264.46
2018-06-03T02:33:00.494Z,101264.59
2018-06-03T02:35:28.774Z,101261.91
2018-06-03T02:37:57.078Z,101265.57
2018-06-03T02:40:25.322Z,101268.23
2018-06-03T02:42:53.594Z,101262.02
2018-06-03T02:45:21.873Z,101267.66
2018-06-03T02:47:50.154Z,101260.05
2018-06-03T02:50:18.442Z,101259.29
2018-06-03T02:52:46.718Z,101259.47
2018-06-03T02:55:14.990Z,101260.07
2018-06-03T02:57:43.274Z,101261.05
2018-06-03T03:00:12.059Z,101259.31
2018-06-03T03:02:40.342Z,101256.39
2018-06-03T03:05:08.606Z,101260.34
2018-06-03T03:07:36.894Z,101261.22
2018-06-03T03:10:05.166Z,101264.81
2018-06-03T03:12:33.441Z,101260.51
2018-06-03T03:15:01.714Z,101259.14
2018-06-03T03:17:29.987Z,101254.55
2018-06-03T03:19:58.270Z,101262.20
2018-06-03T03:22:26.540Z,101263.57
2018-06-03T03:24:54.814Z,101264.75
2018-06-03T03:27:23.099Z,101265.23
2018-06-03T03:29:51.384Z,101268.44
2018-06-03T03:32:19.670Z,101262.85
2018-06-03T03:34:47.941Z,101269.95
2018-06-03T03:37:16.234Z,101262.95
2018-06-03T03:39:44.526Z,101266.52
2018-06-03T03:42:12.814Z,101266.83
2018-06-03T03:44:41.097Z,101268.41
2018-06-03T03:47:09.386Z,101262.95
2018-06-03T03:49:37.677Z,101254.61
2018-06-03T03:52:05.954Z,101258.16
2018-06-03T03:54:34.246Z,101262.73
2018-06-03T03:57:02.522Z,101257.70
2018-06-03T03:59:30.846Z,101258.45
2018-06-03T04:01:59.126Z,101254.53
2018-06-03T04:04:27.410Z,101258.56
2018-06-03T04:06:55.704Z,101260.51
2018-06-03T04:09:23.973Z,101262.80
2018-06-03T04:11:52.263Z,101259.73
2018-06-03T04:14:20.546Z,101254.98
2018-06-03T04:16:48.829Z,101259.45
2018-06-03T04:19:18.046Z,101257.98
2018-06-03T04:21:46.358Z,101262.09
2018-06-03T04:24:14.625Z,101259.72
2018-06-03T04:26:42.914Z,101269.89
2018-06-03T04:29:11.210Z,101261.92
2018-06-03T04:31:39.490Z,101266.67
2018-06-03T04:34:07.774Z,101263.17
2018-06-03T04:36:36.058Z,101267.59
2018-06-03T04:39:04.350Z,101273.11
2018-06-03T04:41:32.630Z,101271.80
2018-06-03T04:44:00.964Z,101277.60
2018-06-03T04:46:29.243Z,101277.55
2018-06-03T04:48:57.524Z,101279.36
2018-06-03T04:51:25.818Z,101280.87
2018-06-03T04:53:54.102Z,101281.78
2018-06-03T04:56:22.390Z,101288.08
2018-06-03T04:58:50.674Z,101289.07
2018-06-03T05:01:18.978Z,101293.06
2018-06-03T05:03:47.251Z,101293.27
2018-06-03T05:06:15.553Z,101302.31
2018-06-03T05:08:43.832Z,101303.06
2018-06-03T05:11:12.109Z,101302.05
2018-06-03T05:13:40.401Z,101304.05
2018-06-03T05:16:08.684Z,101302.95
2018-06-03T05:18:36.978Z,101310.64
2018-06-03T05:21:05.266Z,101315.16
2018-06-03T05:23:33.563Z,101315.77
2018-06-03T05:26:01.851Z,101315.36
2018-06-03T05:28:30.147Z,101311.67
2018-06-03T05:30:58.434Z,101308.58
2018-06-03T05:33:26.728Z,101320.02
2018-06-03T05:35:55.006Z,101318.39
2018-06-03T05:38:23.297Z,101326.25
2018-06-03T05:40:51.578Z,101323.84
2018-06-03T05:43:19.885Z,101314.94
2018-06-03T05:45:48.180Z,101317.38
2018-06-03T05:48:16.460Z,101313.98
2018-06-03T05:50:44.748Z,101322.79
2018-06-03T05:53:13.029Z,101323.16
2018-06-03T05:55:41.321Z,101327.09
2018-06-03T05:58:09.602Z,101316.13
2018-06-03T06:00:37.893Z,101325.22
2018-06-03T06:03:06.174Z,101319.08
2018-06-03T06:05:34.499Z,101323.91
2018-06-03T06:08:02.773Z,101321.54
2018-06-03T06:10:31.075Z,101324.52
2018-06-03T06:12:59.374Z,101313.86
2018-06-03T06:15:27.706Z,101319.88
2018-06-03T06:17:55.986Z,101320.30
2018-06-03T06:20:24.265Z,101317.59
2018-06-03T06:22:52.566Z,101322.67
2018-06-03T06:25:20.849Z,101328.30
2018-06-03T06:27:49.145Z,101325.31
2018-06-03T06:30:17.424Z,101327.16
2018-06-03T06:32:45.714Z,101321.68
2018-06-03T06:35:14.016Z,101320.44
2018-06-03T06:37:42.301Z,101324.94
2018-06-03T06:40:10.601Z,101322.41
2018-06-03T06:42:38.899Z,101321.63
2018-06-03T06:45:07.195Z,101322.64
2018-06-03T06:47:35.481Z,101322.06
2018-06-03T06:50:03.784Z,101322.27
2018-06-03T06:52:32.058Z,101326.34
2018-06-03T06:55:00.354Z,101322.27
2018-06-03T06:57:29.551Z,101324.51
2018-06-03T06:59:57.847Z,101319.47
2018-06-03T07:02:26.131Z,101315.30
2018-06-03T07:04:54.430Z,101313.51
2018-06-03T07:07:22.746Z,101310.05
2018-06-03T07:09:51.030Z,101307.44
2018-06-03T07:12:19.317Z,101309.42
2018-06-03T07:14:47.619Z,101316.29
2018-06-03T07:17:15.897Z,101314.39
2018-06-03T07:19:44.202Z,101316.14
2018-06-03T07:22:12.494Z,101312.50
2018-06-03T07:24:40.771Z,101314.87
2018-06-03T07:27:09.062Z,101313.68
2018-06-03T07:29:37.345Z,101312.57
2018-06-03T07:32:05.693Z,101310.00
2018-06-03T07:34:33.923Z,101304.50
2018-06-03T07:37:02.214Z,101303.20
2018-06-03T07:39:30.510Z,101299.17
2018-06-03T07:41:58.826Z,101304.73
2018-06-03T07:44:27.111Z,101310.63
2018-06-03T07:46:55.415Z,101311.94
2018-06-03T07:49:23.689Z,101308.37
2018-06-03T07:51:51.986Z,101303.05
2018-06-03T07:54:20.273Z,101299.86
2018-06-03T07:56:48.554Z,101305.77
2018-06-03T07:59:16.844Z,101299.82
2018-06-03T08:01:45.138Z,101306.45
2018-06-03T08:04:13.419Z,101295.66
2018-06-03T08:06:41.703Z,101302.32
2018-06-03T08:09:09.993Z,101290.94
2018-06-03T08:11:38.274Z,101291.09
2018-06-03T08:14:06.571Z,101292.09
2018-06-03T08:16:34.858Z,101288.20
2018-06-03T08:19:03.154Z,101290.41
2018-06-03T08:21:31.438Z,101295.01
2018-06-03T08:23:59.745Z,101286.42
2018-06-03T08:26:28.022Z,101289.09
2018-06-03T08:28:56.318Z,101285.97
2018-06-03T08:31:24.618Z,101289.70
2018-06-03T08:33:52.902Z,101294.80
2018-06-03T08:36:21.202Z,101288.67
2018-06-03T08:38:49.488Z,101286.07
2018-06-03T08:41:17.794Z,101289.20
2018-06-03T08:43:46.075Z,101288.05
2018-06-03T08:46:14.365Z,101281.25
2018-06-03T08:48:42.658Z,101281.86
2018-06-03T08:51:10.952Z,101277.02
2018-06-03T08:53:39.238Z,101277.34
2018-06-03T08:56:07.545Z,101282.95
2018-06-03T08:58:35.845Z,101282.37
2018-06-03T09:01:04.760Z,101278.28
2018-06-03T09:03:33.073Z,101280.92
2018-06-03T09:06:01.341Z,101281.10
2018-06-03T09:08:29.630Z,101277.86
2018-06-03T09:10:57.910Z,101281.45
2018-06-03T09:13:26.202Z,101282.80
2018-06-03T09:15:54.486Z,101280.82
2018-06-03T09:18:22.782Z,101276.69
2018-06-03T09:20:51.074Z,101279.09
2018-06-03T09:23:19.376Z,101282.64
2018-06-03T09:25:47.650Z,101278.88
2018-06-03T09:28:16.213Z,101278.67
2018-06-03T09:30:44.493Z,101274.89
2018-06-03T09:33:12.774Z,101267.52
2018-06-03T09:35:41.071Z,101263.50
2018-06-03T09:38:09.353Z,101264.83
2018-06-03T09:40:37.642Z,101271.42
2018-06-03T09:43:05.925Z,101267.50
2018-06-03T09:45:34.228Z,101266.59
2018-06-03T09:48:02.522Z,101253.47
2018-06-03T09:50:30.802Z,101257.73
2018-06-03T09:52:59.086Z,101257.00
2018-06-03T09:55:27.374Z,101255.75
2018-06-03T09:57:55.658Z,101256.26
2018-06-03T10:00:23.947Z,101253.09
2018-06-03T10:02:52.234Z,101259.71
2018-06-03T10:05:20.514Z,101247.84
2018-06-03T10:07:48.810Z,101247.59
2018-06-03T10:10:17.116Z,101256.60
2018-06-03T10:12:45.386Z,101245.02
2018-06-03T10:15:13.667Z,101240.81
2018-06-03T10:17:41.965Z,101243.00
2018-06-03T10:20:10.243Z,101240.30
2018-06-03T10:22:38.542Z,101236.67
2018-06-03T10:25:06.843Z,101238.16
2018-06-03T10:27:35.126Z,101238.44
2018-06-03T10:30:03.432Z,101233.88
2018-06-03T10:32:31.710Z,101230.77
2018-06-03T10:35:00.006Z,101230.37
2018-06-03T10:37:28.285Z,101232.52
2018-06-03T10:39:56.595Z,101237.81
2018-06-03T10:42:24.863Z,101237.64
2018-06-03T10:44:53.962Z,101229.39
2018-06-03T10:47:22.251Z,101230.02
2018-06-03T10:49:50.547Z,101227.80
2018-06-03T10:52:19.706Z,101222.39
2018-06-03T10:54:47.991Z,101222.59
2018-06-03T10:57:16.279Z,101215.18
2018-06-03T10:59:44.610Z,101221.95
2018-06-03T11:02:12.864Z,101224.31
2018-06-03T11:04:41.142Z,101228.61
2018-06-03T11:07:09.430Z,101218.70
2018-06-03T11:09:37.752Z,101217.45
2018-06-03T11:12:06.040Z,101208.90
2018-06-03T11:14:34.325Z,101208.11
2018-06-03T11:17:02.649Z,101212.51
2018-06-03T11:19:30.913Z,101196.45
2018-06-03T11:21:59.185Z,101204.09
2018-06-03T11:24:27.477Z,101190.68
2018-06-03T11:26:55.754Z,101194.61
2018-06-03T11:29:24.041Z,101198.11
2018-06-03T11:31:52.327Z,101189.93
2018-06-03T11:34:20.614Z,101195.02
2018-06-03T11:36:48.899Z,101186.31
2018-06-03T11:39:17.210Z,101193.21
2018-06-03T11:41:45.495Z,101188.21
2018-06-03T11:44:13.778Z,101182.95
2018-06-03T11:46:42.063Z,101186.23
2018-06-03T11:49:10.345Z,101177.53
2018-06-03T11:51:38.647Z,101179.78
2018-06-03T11:54:06.931Z,101182.09
2018-06-03T11:56:46.954Z,101181.14
2018-06-03T11:59:15.241Z,101178.96
2018-06-03T12:01:43.510Z,101176.83
2018-06-03T12:04:11.783Z,101164.14
2018-06-03T12:06:40.066Z,101167.03
2018-06-03T12:09:08.352Z,101175.47
2018-06-03T12:11:36.637Z,101163.75
2018-06-03T12:14:04.915Z,101164.16
2018-06-03T12:16:33.203Z,101170.05
2018-06-03T12:19:01.483Z,101159.95
2018-06-03T12:21:29.771Z,101163.93
2018-06-03T12:23:58.043Z,101159.14
2018-06-03T12:26:26.326Z,101157.06
2018-06-03T12:28:54.611Z,101161.53
2018-06-03T12:31:22.901Z,101163.73
2018-06-03T12:33:51.175Z,101146.70
2018-06-03T12:36:19.458Z,101154.06
2018-06-03T12:38:47.731Z,101145.69
2018-06-03T12:41:16.014Z,101153.00
2018-06-03T12:43:44.289Z,101136.62
2018-06-03T12:46:12.562Z,101142.81
2018-06-03T12:48:40.846Z,101136.21
2018-06-03T12:51:09.131Z,101132.91
2018-06-03T12:53:37.410Z,101131.64
2018-06-03T12:56:05.686Z,101127.41
2018-06-03T12:58:33.986Z,101133.74
2018-06-03T13:01:02.262Z,101131.08
2018-06-03T13:03:30.598Z,101133.25
2018-06-03T13:05:58.880Z,101127.41
2018-06-03T13:08:27.191Z,101127.88
2018-06-03T13:10:55.458Z,101121.52
2018-06-03T13:13:23.737Z,101119.52
2018-06-03T13:15:52.022Z,101119.31
2018-06-03T13:18:20.331Z,101118.63
2018-06-03T13:20:48.582Z,101117.47
2018-06-03T13:23:16.867Z,101115.27
2018-06-03T13:25:45.141Z,101111.99
2018-06-03T13:28:13.418Z,101110.31
2018-06-03T13:30:42.070Z,101107.04
2018-06-03T13:33:10.342Z,101098.41
2018-06-03T13:35:38.630Z,101095.09
2018-06-03T13:38:06.908Z,101089.87
2018-06-03T13:40:35.202Z,101089.42
2018-06-03T13:43:03.482Z,101073.94
2018-06-03T13:45:31.779Z,101090.09
2018-06-03T13:48:00.062Z,101084.93
2018-06-03T13:50:28.346Z,101080.53
2018-06-03T13:52:56.652Z,101074.77
2018-06-03T13:55:24.932Z,101078.66
2018-06-03T13:57:53.222Z,101071.80
2018-06-03T14:00:21.515Z,101061.98
2018-06-03T14:02:49.814Z,101068.80
2018-06-03T14:05:18.099Z,101058.70
2018-06-03T14:07:46.395Z,101055.73
2018-06-03T14:10:14.678Z,101055.11
2018-06-03T14:12:42.966Z,101047.45
2018-06-03T14:15:11.246Z,101048.42
2018-06-03T14:17:39.546Z,101048.55
2018-06-03T14:20:07.825Z,101044.91
2018-06-03T14:22:36.110Z,101039.40
2018-06-03T14:25:04.409Z,101035.49
2018-06-03T14:27:32.743Z,101031.92
2018-06-03T14:30:01.009Z,101025.64
2018-06-03T14:32:29.298Z,101027.63
2018-06-03T14:34:57.585Z,101025.09
2018-06-03T14:37:25.862Z,101019.93
2018-06-03T14:39:54.169Z,101021.48
2018-06-03T14:42:55.380Z,101019.95
2018-06-03T14:45:24.515Z,101011.08
2018-06-03T14:47:53.632Z,101006.36
2018-06-03T14:50:22.765Z,101008.98
2018-06-03T14:52:51.870Z,101001.36
2018-06-03T14:55:21.025Z,100998.74
2018-06-03T14:57:50.136Z,100996.56
2018-06-03T15:00:19.243Z,100989.59
2018-06-03T15:02:48.366Z,100982.66
2018-06-03T15:05:17.476Z,100983.88
2018-06-03T15:07:46.606Z,100982.59
2018-06-03T15:10:15.696Z,100977.23
2018-06-03T15:12:44.830Z,100974.08
2018-06-03T15:15:14.046Z,100970.23
2018-06-03T15:17:43.164Z,100969.19
2018-06-03T15:20:12.306Z,100965.81
2018-06-03T15:22:41.438Z,100966.86
2018-06-03T15:25:10.558Z,100964.04
2018-06-03T15:27:39.722Z,100962.17
2018-06-03T15:30:08.858Z,100958.37
2018-06-03T15:32:38.023Z,100958.63
2018-06-03T15:35:07.164Z,100958.75
2018-06-03T15:37:36.278Z,100951.39
2018-06-03T15:40:05.461Z,100952.00
2018-06-03T15:42:34.626Z,100945.97
2018-06-03T15:45:03.790Z,100949.44
2018-06-03T15:47:32.967Z,100950.39
2018-06-03T15:50:02.103Z,100947.92
2018-06-03T15:52:31.222Z,100951.41
2018-06-03T15:55:00.347Z,100945.22
2018-06-03T15:57:29.462Z,100943.91
2018-06-03T15:59:58.603Z,100944.84
2018-06-03T16:02:27.758Z,100947.12
2018-06-03T16:04:56.918Z,100941.23
2018-06-03T16:07:25.994Z,100940.40
2018-06-03T16:09:55.117Z,100931.92
2018-06-03T16:12:24.271Z,100928.63
2018-06-03T16:14:53.410Z,100924.02
2018-06-03T16:17:22.523Z,100929.39
2018-06-03T16:19:51.655Z,100923.97
2018-06-03T16:22:20.790Z,100918.78
2018-06-03T16:24:49.897Z,100918.98
2018-06-03T16:27:19.364Z,100919.37
2018-06-03T16:29:48.501Z,100914.89
2018-06-03T16:32:17.618Z,100918.02
2018-06-03T16:34:46.731Z,100910.63
2018-06-03T16:37:15.841Z,100913.33
2018-06-03T16:39:44.941Z,100907.28
2018-06-03T16:42:14.294Z,100904.96
2018-06-03T16:44:43.370Z,100908.89
2018-06-03T16:47:12.523Z,100904.21
2018-06-03T16:49:41.633Z,100904.54
2018-06-03T16:52:10.762Z,100904.94
2018-06-03T16:54:39.893Z,100910.34
2018-06-03T16:57:09.043Z,100901.78
2018-06-03T16:59:38.173Z,100892.86
2018-06-03T17:02:07.319Z,100897.21
2018-06-03T17:04:36.451Z,100897.27
2018-06-03T17:07:05.804Z,100890.56
2018-06-03T17:09:34.921Z,100893.58
2018-06-03T17:12:04.182Z,100890.87
2018-06-03T17:14:33.409Z,100884.58
2018-06-03T17:17:02.446Z,100895.23
2018-06-03T17:19:31.548Z,100890.52
2018-06-03T17:22:00.665Z,100892.11
2018-06-03T17:24:29.794Z,100889.36
2018-06-03T17:26:58.910Z,100889.17
2018-06-03T17:29:28.034Z,100887.44
2018-06-03T17:31:57.171Z,100883.28
2018-06-03T17:34:26.378Z,100893.59
2018-06-03T17:36:55.446Z,100893.20
2018-06-03T17:39:24.573Z,100890.20
2018-06-03T17:41:53.686Z,100883.28
2018-06-03T17:44:22.810Z,100880.27
2018-06-03T17:46:51.929Z,100881.93
2018-06-03T17:49:21.086Z,100878.10
2018-06-03T17:51:50.214Z,100883.05
2018-06-03T17:54:19.337Z,100884.87
2018-06-03T17:56:48.448Z,100873.88
2018-06-03T17:59:17.574Z,100878.67
2018-06-03T18:01:46.750Z,100870.09
2018-06-03T18:04:15.890Z,100868.77
2018-06-03T18:06:45.050Z,100867.12
2018-06-03T18:09:14.170Z,100869.56
2018-06-03T18:11:43.298Z,100866.77
2018-06-03T18:14:12.398Z,100870.36
2018-06-03T18:16:41.518Z,100867.05
2018-06-03T18:19:10.645Z,100869.74
2018-06-03T18:21:39.746Z,100871.50
2018-06-03T18:24:08.866Z,100865.95
2018-06-03T18:26:38.011Z,100862.27
2018-06-03T18:29:07.134Z,100866.13
2018-06-03T18:31:36.477Z,100858.62
2018-06-03T18:34:05.667Z,100860.67
2018-06-03T18:36:34.834Z,100869.12
2018-06-03T18:39:05.315Z,100859.66
2018-06-03T18:41:34.794Z,100854.94
2018-06-03T18:44:03.918Z,100858.23
2018-06-03T18:46:33.020Z,100849.34
2018-06-03T18:49:02.166Z,100856.31
2018-06-03T18:51:31.258Z,100853.95
2018-06-03T18:54:00.396Z,100861.53
2018-06-03T18:56:29.554Z,100871.27
2018-06-03T18:58:58.665Z,100864.00
2018-06-03T19:01:27.810Z,100865.27
2018-06-03T19:03:56.912Z,100865.16
2018-06-03T19:06:26.030Z,100866.01
2018-06-03T19:08:55.131Z,100860.76
2018-06-03T19:11:24.254Z,100863.70
2018-06-03T19:13:53.427Z,100868.03
2018-06-03T19:16:22.566Z,100862.99
2018-06-03T19:18:51.706Z,100874.64
2018-06-03T19:21:20.859Z,100873.14
2018-06-03T19:23:49.986Z,100875.33
2018-06-03T19:26:19.183Z,100875.81
2018-06-03T19:28:48.286Z,100874.09
2018-06-03T19:31:17.394Z,100876.74
2018-06-03T19:33:46.518Z,100879.72
2018-06-03T19:36:15.630Z,100875.88
2018-06-03T19:38:44.797Z,100872.62
2018-06-03T19:41:13.914Z,100873.33
2018-06-03T19:43:43.029Z,100877.23
2018-06-03T19:46:12.145Z,100881.12
2018-06-03T19:48:41.278Z,100880.63
2018-06-03T19:51:10.384Z,100881.34
2018-06-03T19:53:39.526Z,100882.11
2018-06-03T19:56:08.649Z,100884.70
2018-06-03T19:58:38.090Z,100882.52
2018-06-03T20:01:07.242Z,100885.81
2018-06-03T20:03:36.386Z,100886.94
2018-06-03T20:06:05.814Z,100888.88
2018-06-03T20:08:34.932Z,100895.50
2018-06-03T20:11:04.051Z,100900.09
2018-06-03T20:13:33.154Z,100898.40
2018-06-03T20:16:02.270Z,100907.67
2018-06-03T20:18:31.382Z,100907.96
2018-06-03T20:21:00.506Z,100899.62
2018-06-03T20:23:29.670Z,100892.22
2018-06-03T20:25:58.779Z,100891.25
2018-06-03T20:28:27.930Z,100886.70
2018-06-03T20:30:57.070Z,100885.07
2018-06-03T20:33:26.241Z,100888.90
2018-06-03T20:35:55.578Z,100884.84
2018-06-03T20:38:24.707Z,100887.28
2018-06-03T20:40:53.833Z,100888.34
2018-06-03T20:43:22.954Z,100886.70
2018-06-03T20:45:52.417Z,100885.50
2018-06-03T20:48:21.537Z,100878.68
2018-06-03T20:50:50.658Z,100886.20
2018-06-03T20:53:19.762Z,100879.78
2018-06-03T20:55:48.858Z,100877.16
2018-06-03T20:58:17.977Z,100881.52
2018-06-03T21:00:47.079Z,100883.27
2018-06-03T21:03:16.186Z,100883.09
2018-06-03T21:05:45.291Z,100878.20
2018-06-03T21:08:14.435Z,100881.77
2018-06-03T21:10:43.534Z,100877.72
2018-06-03T21:13:12.649Z,100879.12
2018-06-03T21:15:41.765Z,100877.02
2018-06-03T21:18:10.882Z,100878.48
2018-06-03T21:20:39.997Z,100882.75
2018-06-03T21:23:09.103Z,100880.49
2018-06-03T21:25:38.186Z,100878.66
2018-06-03T21:28:07.326Z,100879.29
2018-06-03T21:30:36.446Z,100884.22
2018-06-03T21:33:05.605Z,100879.39
2018-06-03T21:35:34.714Z,100880.84
2018-06-03T21:38:03.846Z,100878.05
2018-06-03T21:40:32.951Z,100873.83
2018-06-03T21:43:02.078Z,100876.20
2018-06-03T21:45:31.220Z,100876.66
2018-06-03T21:48:00.326Z,100878.13
2018-06-03T21:50:29.435Z,100872.89
2018-06-03T21:52:58.539Z,100878.56
2018-06-03T21:55:27.705Z,100882.39
2018-06-03T21:57:56.833Z,100887.72
2018-06-03T22:00:25.938Z,100890.97
2018-06-03T22:02:55.047Z,100893.75
2018-06-03T22:05:24.158Z,100887.49
2018-06-03T22:07:54.302Z,100899.36
2018-06-03T22:10:23.406Z,100895.23
2018-06-03T22:12:52.526Z,100893.38
2018-06-03T22:15:21.632Z,100886.85
2018-06-03T22:17:50.741Z,100891.84
2018-06-03T22:20:19.842Z,100887.15
2018-06-03T22:22:48.962Z,100886.29
2018-06-03T22:25:18.062Z,100879.35
2018-06-03T22:27:47.198Z,100875.52
2018-06-03T22:30:16.293Z,100881.70
2018-06-03T22:32:45.422Z,100882.79
2018-06-03T22:35:14.545Z,100877.63
2018-06-03T22:37:43.682Z,100880.79
2018-06-03T22:40:12.842Z,100877.12
2018-06-03T22:42:41.976Z,100871.09
2018-06-03T22:45:11.066Z,100879.42
2018-06-03T22:47:40.174Z,100879.98
2018-06-03T22:50:09.366Z,100883.77
2018-06-03T22:52:38.418Z,100884.45
2018-06-03T22:55:07.542Z,100879.25
2018-06-03T22:57:47.101Z,100879.81
2018-06-03T23:00:25.643Z,100869.42
2018-06-03T23:03:00.140Z,100881.02
2018-06-03T23:05:29.294Z,100880.72
2018-06-03T23:07:58.426Z,100880.16
2018-06-03T23:10:27.550Z,100873.91
2018-06-03T23:12:56.691Z,100874.17
2018-06-03T23:15:25.827Z,100874.66
2018-06-03T23:17:54.949Z,100869.20
2018-06-03T23:20:24.055Z,100871.98
2018-06-03T23:22:53.191Z,100870.89
2018-06-03T23:25:22.336Z,100861.63
2018-06-03T23:27:51.398Z,100864.83
2018-06-03T23:30:20.546Z,100870.29
2018-06-03T23:32:49.725Z,100871.37
2018-06-03T23:35:18.830Z,100867.92
2018-06-03T23:37:47.942Z,100861.86
2018-06-03T23:40:17.046Z,100868.98
2018-06-03T23:42:46.154Z,100863.70
2018-06-03T23:45:15.255Z,100867.41
2018-06-03T23:47:44.646Z,100860.05
2018-06-03T23:50:13.753Z,100860.37
2018-06-03T23:52:42.867Z,100852.89
2018-06-03T23:55:12.023Z,100860.37
2018-06-03T23:57:41.162Z,100854.66
